C7179 Weather Reports


Display with metric or nautical units.
time (UTC)temp
F
wind
direction
speed
MPH
gust
MPH
rain 1hr
in
rain 24hr
in
rain mn
in
humidity
%
barometer
mb
20240723050043 75 165 1.0 2.0 0.00 0.00 0.00 84 1015.5
20240723044523 76 190 1.0 3.0 0.00 0.00 0.00 84 1015.4
20240723043026 76 211 0.0 3.0 0.00 0.00 0.00 84 1015.5
20240723041525 76 239 1.0 4.0 0.00 0.00 0.00 83 1015.4
20240723040044 76 192 1.0 3.0 0.00 0.00 0.00 82 1015.5
20240723034529 76 186 0.0 3.0 0.00 0.00 0.00 81 1015.6
20240723033025 76 186 0.0 2.0 0.00 0.00 0.00 81 1015.3
20240723031540 76 193 1.0 2.0 0.00 0.00 0.00 80 1015.4
20240723030037 77 0 0.0 1.0 0.00 0.00 0.00 80 1015.3
20240723024525 77 0 0.0 2.0 0.00 0.00 0.00 79 1015.3
20240723023027 77 208 0.0 3.0 0.00 0.00 0.00 79 1015.0
20240723021527 77 172 0.0 4.0 0.00 0.00 0.00 77 1014.8
20240723020024 77 224 2.0 6.0 0.00 0.00 0.00 76 1014.6
20240723014528 77 189 1.0 4.0 0.00 0.00 0.00 76 1014.6
20240723013024 78 202 2.0 7.0 0.00 0.00 0.00 76 1014.5
20240723011524 78 199 2.0 4.0 0.00 0.00 0.00 76 1014.4
20240723010027 78 235 2.0 6.0 0.00 0.00 0.00 75 1014.4
20240723004531 78 226 2.0 6.0 0.00 0.00 0.00 75 1014.6
20240723003027 79 233 2.0 5.0 0.00 0.00 0.00 75 1014.2
20240723001533 79 206 2.0 6.0 0.00 0.00 0.00 76 1014.2
20240723000032 78 155 1.0 6.0 0.00 0.00 0.00 77 1014.2
20240722234531 78 219 3.0 8.0 0.00 0.00 0.00 78 1014.2
20240722233027 79 152 3.0 10.0 0.00 0.00 0.00 76 1014.2
20240722231539 80 187 3.0 10.0 0.00 0.00 0.00 75 1014.1
20240722230026 82 207 5.0 12.0 0.00 0.00 0.00 69 1013.8
20240722224528 85 192 1.0 5.0 0.00 0.00 0.00 66 1013.5
20240722223026 86 69 0.0 2.0 0.00 0.00 0.00 63 1013.6
20240722221537 87 326 1.0 3.0 0.00 0.00 0.00 61 1013.6
20240722220037 87 353 2.0 5.0 0.00 0.00 0.00 61 1013.7
20240722214541 87 42 3.0 6.0 0.00 0.00 0.00 63 1013.5
20240722213025 86 44 3.0 6.0 0.00 0.00 0.00 63 1013.4
20240722211526 87 47 1.0 6.0 0.00 0.00 0.00 62 1013.7
20240722210028 87 351 2.0 4.0 0.00 0.00 0.00 61 1013.9
20240722204528 86 20 1.0 7.0 0.00 0.00 0.00 62 1013.7
20240722203024 86 7 2.0 5.0 0.00 0.00 0.00 62 1014.0
20240722201527 85 339 2.0 6.0 0.00 0.00 0.00 64 1013.8
20240722200031 85 340 3.0 7.0 0.00 0.00 0.00 65 1014.1
20240722194526 85 346 2.0 5.0 0.00 0.00 0.00 65 1014.3
20240722193025 85 321 3.0 6.0 0.00 0.00 0.00 66 1014.6
20240722191535 85 314 2.0 5.0 0.00 0.00 0.00 66 1014.6
20240722190031 85 4 2.0 5.0 0.00 0.00 0.00 66 1014.7
20240722184530 84 25 2.0 5.0 0.00 0.03 0.00 65 1014.9
20240722183029 84 332 2.0 7.0 0.00 0.03 0.00 67 1015.1
20240722181526 83 304 1.0 4.0 0.00 0.03 0.00 69 1015.1
20240722180030 82 31 2.0 5.0 0.00 0.03 0.00 69 1015.3
20240722174532 82 6 1.0 5.0 0.00 0.03 0.00 69 1015.4
20240722173027 83 336 2.0 4.0 0.00 0.03 0.00 69 1015.6
20240722171529 82 327 0.0 2.0 0.00 0.03 0.00 70 1015.7
20240722170029 81 47 0.0 1.0 0.00 0.03 0.00 71 1015.8
20240722164551 80 0 0.0 0.0 0.00 0.11 0.00 72 1015.8
20240722163030 80 0 0.0 3.0 0.00 0.11 0.00 72 1015.8
20240722161548 80 0 0.0 3.0 0.00 0.11 0.00 74 1015.9
20240722160029 79 330 0.0 3.0 0.00 0.11 0.00 73 1015.8
20240722154528 80 328 1.0 4.0 0.00 0.11 0.00 72 1015.9
20240722153031 80 323 1.0 2.0 0.00 0.11 0.00 70 1016.0
20240722151531 81 338 0.0 1.0 0.00 0.11 0.00 70 1015.9
20240722150027 81 0 1.0 2.0 0.00 0.11 0.00 71 1015.9
20240722144541 80 32 1.0 2.0 0.00 0.11 0.00 71 1015.9
20240722143028 79 0 0.0 0.0 0.00 0.11 0.00 72 1015.8
20240722141549 79 0 0.0 2.0 0.00 0.11 0.00 72 1015.8
20240722140029 79 75 0.0 1.0 0.00 0.11 0.00 72 1015.5
20240722134531 78 0 0.0 1.0 0.00 0.11 0.00 74 1015.4
20240722133026 77 0 0.0 2.0 0.00 0.11 0.00 75 1015.4
20240722131531 77 59 0.0 3.0 0.00 0.11 0.00 75 1014.9
20240722130027 76 64 0.0 1.0 0.00 0.11 0.00 77 1014.9
20240722124527 76 63 0.0 2.0 0.00 0.48 0.00 78 1015.0
20240722123028 76 0 0.0 2.0 0.00 0.48 0.00 81 1015.1
20240722121537 76 68 0.0 3.0 0.00 0.48 0.00 82 1015.1
20240722120030 76 6 2.0 4.0 0.00 0.48 0.00 82 1015.3
20240722114534 76 53 0.0 3.0 0.00 0.86 0.00 84 1015.1
20240722113047 76 52 2.0 6.0 0.00 0.86 0.00 84 1015.1
20240722111527 76 96 1.0 4.0 0.00 0.86 0.00 84 1014.9
20240722110032 76 33 0.0 2.0 0.00 0.86 0.00 85 1014.7
20240722104528 76 0 0.0 2.0 0.00 0.89 0.00 84 1014.7
20240722103037 76 27 0.0 2.0 0.00 0.89 0.00 84 1014.6
20240722101536 76 0 0.0 2.0 0.00 0.89 0.00 84 1014.4
20240722100027 76 0 0.0 0.0 0.00 0.89 0.00 84 1014.3
20240722094528 76 0 0.0 1.0 0.00 0.89 0.00 84 1014.3
20240722093033 76 0 0.0 0.0 0.00 0.89 0.00 84 1014.4
20240722091526 76 0 0.0 0.0 0.00 0.89 0.00 84 1014.1
20240722090024 76 0 0.0 0.0 0.00 0.89 0.00 83 1014.1
20240722084528 76 0 0.0 0.0 0.00 0.89 0.00 82 1014.2
20240722083028 76 0 0.0 0.0 0.00 0.89 0.00 82 1014.0
20240722081536 77 0 0.0 0.0 0.00 0.89 0.00 81 1014.2
20240722080028 77 0 0.0 0.0 0.00 0.89 0.00 79 1014.1
20240722074534 78 0 0.0 0.0 0.00 0.89 0.00 78 1014.2
20240722073027 78 0 0.0 0.0 0.00 0.89 0.00 77 1014.3
20240722071528 78 0 0.0 0.0 0.00 0.89 0.00 77 1014.5
20240722070028 78 0 0.0 0.0 0.00 0.89 0.00 78 1014.4
20240722064542 78 0 0.0 0.0 0.00 0.89 0.00 77 1014.6
20240722063032 78 0 0.0 0.0 0.00 0.89 0.00 76 1014.7
20240722061532 79 0 0.0 1.0 0.00 0.89 0.00 74 1014.5
20240722060034 79 0 0.0 0.0 0.00 0.89 0.00 75 1014.7
20240722054533 79 0 0.0 0.0 0.00 0.89 0.00 75 1014.9
20240722053024 79 0 0.0 0.0 0.00 0.89 0.00 75 1015.2
20240722051528 78 0 0.0 0.0 0.00 0.89 0.00 74 1015.4